首页
METAR-TAF:

METAR-TAF

机场 :

St. Catharines, 安大略省, 加拿大

纬度: 43-12N, 经度: 079-10W, 海拔: 98米

当前天气观测

该预报发布于48分钟前的22:00 UTC
风速12节,风向西
温度 29°C
湿度 45%
气压 1015 hPa
能見度: 24.1公里
少量云层高于4500英尺
散云层高于8000英尺

METAR: CYSN 262200Z 27012KT 15SM FEW045 SCT080 29/16 A2997 RMK CU2AC1 SLP150 DENSITY ALT 1900FT

时间: 18:48 (22:48 UTC)

预报

该预报发布于3小时和10分钟前的19:38 UTC
预报有效从26日的 20点(UTC)到 27日的 01点(UTC)
风速12节,风向西转西南,有时为22节阵风
能見度: 10公里
散云层高于6000英尺
成为
从 26日的 23点(UTC)到 27日的 01点(UTC)
风速10节,风向西
少量云层高于6000英尺

TAF: CYSN 261938Z 2620/2701 24012G22KT P6SM SCT060 BECMG 2623/2701 28010KT FEW060 RMK NXT FCST WILL BE ISSUED AT 271245Z

超过4000个机场的气象观测和天气预报(METAR&TAF报告)。

可查询的气象台以黄色和红色小点在地图上表示。

将鼠标移到小点上方,可查看气象台名称。

然后点击查看天气观测和预报。

如需切换地图:点击带黑十字的绿色按钮放大地图;点击带横线的绿色按钮缩小地图;或者点击绿色箭头查看邻近地区的地图。


METAR-TAF: